createdAt,value
2023-01-21T00:00:24.808Z,99876.06
2023-01-21T00:01:00.558Z,99877.84
2023-01-21T00:01:34.059Z,99874.38
2023-01-21T00:02:13.341Z,99870.16
2023-01-21T00:02:45.557Z,99869.31
2023-01-21T00:03:18.966Z,99872.81
2023-01-21T00:03:56.864Z,99869.41
2023-01-21T00:04:29.318Z,99868.47
2023-01-21T00:05:01.377Z,99871.13
2023-01-21T00:05:35.573Z,99867.66
2023-01-21T00:06:09.958Z,99866.03
2023-01-21T00:06:47.621Z,99872.91
2023-01-21T00:07:22.409Z,99869.41
2023-01-21T00:07:54.596Z,99865.00
2023-01-21T00:08:29.448Z,99863.47
2023-01-21T00:09:04.377Z,99867.88
2023-01-21T00:09:40.726Z,99866.19
2023-01-21T00:10:19.700Z,99871.22
2023-01-21T00:10:52.327Z,99877.19
2023-01-21T00:11:30.679Z,99871.16
2023-01-21T00:12:39.447Z,99872.81
2023-01-21T00:13:11.365Z,99877.91
2023-01-21T00:13:49.873Z,99868.69
2023-01-21T00:14:26.517Z,99879.75
2023-01-21T00:15:00.869Z,99877.19
2023-01-21T00:15:32.670Z,99884.00
2023-01-21T00:16:05.640Z,99882.34
2023-01-21T00:16:37.607Z,99879.06
2023-01-21T00:17:11.514Z,99883.13
2023-01-21T00:17:44.588Z,99892.47
2023-01-21T00:18:19.063Z,99886.59
2023-01-21T00:18:51.303Z,99887.53
2023-01-21T00:19:25.725Z,99899.44
2023-01-21T00:20:05.879Z,99891.63
2023-01-21T00:20:40.821Z,99898.44
2023-01-21T00:21:19.126Z,99894.16
2023-01-21T00:21:51.831Z,99897.56
2023-01-21T00:22:23.692Z,99889.78
2023-01-21T00:22:55.568Z,99887.34
2023-01-21T00:23:29.672Z,99888.13
2023-01-21T00:24:01.325Z,99885.44
2023-01-21T00:24:33.067Z,99887.19
2023-01-21T00:25:05.038Z,99887.22
2023-01-21T00:25:36.675Z,99887.38
2023-01-21T00:26:13.589Z,99885.59
2023-01-21T00:26:45.217Z,99889.78
2023-01-21T00:27:16.912Z,99891.69
2023-01-21T00:27:48.560Z,99891.72
2023-01-21T00:28:20.219Z,99892.59
2023-01-21T00:28:51.857Z,99890.78
2023-01-21T00:29:23.566Z,99887.38
2023-01-21T00:29:55.241Z,99892.56
2023-01-21T00:30:27.043Z,99895.00
2023-01-21T00:31:00.078Z,99893.31
2023-01-21T00:31:31.993Z,99893.31
2023-01-21T00:32:03.787Z,99888.22
2023-01-21T00:32:35.425Z,99886.44
2023-01-21T00:33:07.681Z,99887.28
2023-01-21T00:33:39.555Z,99891.69
2023-01-21T00:34:11.483Z,99884.97
2023-01-21T00:34:43.209Z,99885.88
2023-01-21T00:35:15.153Z,99887.56
2023-01-21T00:35:49.679Z,99882.44
2023-01-21T00:36:22.333Z,99887.47
2023-01-21T00:36:56.402Z,99881.44
2023-01-21T00:37:28.232Z,99884.00
2023-01-21T00:38:00.007Z,99883.19
2023-01-21T00:38:32.492Z,99889.16
2023-01-21T00:39:04.130Z,99891.63
2023-01-21T00:39:35.789Z,99885.66
2023-01-21T00:40:08.458Z,99884.06
2023-01-21T00:40:40.263Z,99884.06
2023-01-21T00:41:14.114Z,99882.28
2023-01-21T00:41:45.874Z,99879.78
2023-01-21T00:42:17.547Z,99882.44
2023-01-21T00:42:49.223Z,99890.19
2023-01-21T00:43:20.874Z,99883.22
2023-01-21T00:43:53.215Z,99881.50
2023-01-21T00:44:24.912Z,99878.94
2023-01-21T00:44:57.491Z,99879.81
2023-01-21T00:45:29.209Z,99874.63
2023-01-21T00:46:01.295Z,99879.72
2023-01-21T00:46:34.248Z,99878.88
2023-01-21T00:47:06.730Z,99886.72
2023-01-21T00:47:38.398Z,99874.78
2023-01-21T00:48:14.080Z,99867.91
2023-01-21T00:48:46.247Z,99878.06
2023-01-21T00:49:17.937Z,99877.25
2023-01-21T00:49:49.606Z,99883.19
2023-01-21T00:50:21.262Z,99876.38
2023-01-21T00:50:55.898Z,99878.94
2023-01-21T00:51:27.935Z,99874.63
2023-01-21T00:52:02.289Z,99873.75
2023-01-21T00:52:35.784Z,99874.63
2023-01-21T00:53:07.446Z,99872.06
2023-01-21T00:53:45.927Z,99872.91
2023-01-21T00:54:17.653Z,99869.53
2023-01-21T00:54:49.350Z,99872.13
2023-01-21T00:55:21.135Z,99872.91
2023-01-21T00:55:55.305Z,99868.66
2023-01-21T00:56:28.861Z,99873.78
2023-01-21T00:57:02.415Z,99871.19
2023-01-21T00:57:36.026Z,99866.19
2023-01-21T00:58:10.329Z,99872.06
2023-01-21T00:58:44.985Z,99871.16
2023-01-21T00:59:16.855Z,99870.38
2023-01-21T00:59:48.773Z,99872.91
2023-01-21T01:00:20.579Z,99872.81
2023-01-21T01:01:05.762Z,99870.22
2023-01-21T01:01:38.579Z,99871.81
2023-01-21T01:02:10.480Z,99871.81
2023-01-21T01:02:51.955Z,99872.69
2023-01-21T01:03:23.628Z,99877.06
2023-01-21T01:03:55.299Z,99875.31
2023-01-21T01:04:27.043Z,99870.16
2023-01-21T01:04:58.696Z,99879.53
2023-01-21T01:05:30.450Z,99880.38
2023-01-21T01:06:11.725Z,99880.47
2023-01-21T01:06:43.393Z,99875.41
2023-01-21T01:07:15.053Z,99872.75
2023-01-21T01:07:49.108Z,99883.84
2023-01-21T01:08:20.757Z,99874.44
2023-01-21T01:08:52.720Z,99878.69
2023-01-21T01:09:24.413Z,99877.09
2023-01-21T01:09:56.060Z,99889.94
2023-01-21T01:10:27.721Z,99881.34
2023-01-21T01:11:00.421Z,99882.19
2023-01-21T01:11:32.231Z,99885.56
2023-01-21T01:12:06.397Z,99890.69
2023-01-21T01:12:38.100Z,99893.25
2023-01-21T01:13:09.788Z,99891.63
2023-01-21T01:13:43.767Z,99900.06
2023-01-21T01:14:15.451Z,99890.69
2023-01-21T01:14:47.625Z,99893.41
2023-01-21T01:15:19.323Z,99891.78
2023-01-21T01:15:55.980Z,99890.78
2023-01-21T01:16:27.897Z,99894.97
2023-01-21T01:17:01.908Z,99894.97
2023-01-21T01:17:41.651Z,99890.63
2023-01-21T01:18:13.377Z,99892.44
2023-01-21T01:18:45.278Z,99888.97
2023-01-21T01:19:17.441Z,99892.50
2023-01-21T01:19:49.075Z,99889.16
2023-01-21T01:20:20.732Z,99892.63
2023-01-21T01:20:55.257Z,99890.03
2023-01-21T01:21:27.004Z,99891.72
2023-01-21T01:22:00.764Z,99891.63
2023-01-21T01:22:32.478Z,99888.25
2023-01-21T01:23:39.929Z,99894.25
2023-01-21T01:24:11.782Z,99890.97
2023-01-21T01:24:43.461Z,99897.06
2023-01-21T01:25:15.237Z,99895.22
2023-01-21T01:26:03.256Z,99894.38
2023-01-21T01:26:37.736Z,99888.41
2023-01-21T01:27:11.714Z,99892.72
2023-01-21T01:27:46.177Z,99887.56
2023-01-21T01:28:17.912Z,99892.72
2023-01-21T01:28:49.708Z,99887.63
2023-01-21T01:29:21.438Z,99886.72
2023-01-21T01:29:53.083Z,99893.56
2023-01-21T01:30:24.772Z,99888.41
2023-01-21T01:30:58.142Z,99885.78
2023-01-21T01:31:30.014Z,99881.81
2023-01-21T01:32:01.732Z,99883.47
2023-01-21T01:32:33.376Z,99884.22
2023-01-21T01:33:05.111Z,99878.94
2023-01-21T01:33:36.846Z,99885.00
2023-01-21T01:34:08.514Z,99878.97
2023-01-21T01:34:40.357Z,99875.56
2023-01-21T01:35:14.100Z,99880.66
2023-01-21T01:35:49.521Z,99878.88
2023-01-21T01:36:25.357Z,99882.44
2023-01-21T01:36:57.043Z,99881.59
2023-01-21T01:37:28.724Z,99878.06
2023-01-21T01:38:09.855Z,99886.53
2023-01-21T01:38:41.980Z,99877.28
2023-01-21T01:39:14.170Z,99876.47
2023-01-21T01:39:48.155Z,99877.22
2023-01-21T01:40:22.303Z,99878.25
2023-01-21T01:40:54.025Z,99878.19
2023-01-21T01:41:28.681Z,99878.06
2023-01-21T01:42:00.410Z,99877.28
2023-01-21T01:42:34.191Z,99877.25
2023-01-21T01:43:22.337Z,99876.41
2023-01-21T01:44:04.880Z,99879.91
2023-01-21T01:44:57.400Z,99881.41
2023-01-21T01:45:29.232Z,99873.75
2023-01-21T01:46:02.203Z,99884.91
2023-01-21T01:46:38.139Z,99881.50
2023-01-21T01:47:12.076Z,99882.34
2023-01-21T01:48:03.378Z,99884.91
2023-01-21T01:48:35.375Z,99879.75
2023-01-21T01:49:19.547Z,99881.47
2023-01-21T01:49:54.689Z,99874.63
2023-01-21T01:50:34.854Z,99877.19
2023-01-21T01:51:07.890Z,99883.09
2023-01-21T01:51:52.061Z,99882.28
2023-01-21T01:52:24.789Z,99884.81
2023-01-21T01:53:00.936Z,99883.16
2023-01-21T01:53:35.583Z,99873.75
2023-01-21T01:54:09.881Z,99879.72
2023-01-21T01:54:47.921Z,99877.09
2023-01-21T01:55:22.789Z,99875.41
2023-01-21T01:55:56.200Z,99882.13
2023-01-21T01:56:30.050Z,99881.31
2023-01-21T01:57:05.337Z,99871.06
2023-01-21T01:57:42.195Z,99883.97
2023-01-21T02:06:58.174Z,99873.75
2023-01-21T02:07:42.058Z,99864.41
2023-01-21T02:08:14.764Z,99862.81
2023-01-21T02:08:48.415Z,99864.50
2023-01-21T02:09:20.421Z,99865.34
2023-01-21T02:09:56.912Z,99864.41
2023-01-21T02:10:38.861Z,99864.34
2023-01-21T02:11:32.945Z,99870.28
2023-01-21T02:12:16.028Z,99869.53
2023-01-21T02:12:49.608Z,99865.19
2023-01-21T02:13:22.270Z,99866.88
2023-01-21T02:14:08.002Z,99867.88
2023-01-21T02:14:43.262Z,99866.94
2023-01-21T02:15:15.196Z,99863.72
2023-01-21T02:16:30.249Z,99878.13
2023-01-21T02:17:37.730Z,99868.69
2023-01-21T02:18:52.779Z,99874.63
2023-01-21T02:21:25.603Z,99866.78
2023-01-21T02:22:11.073Z,99869.28
2023-01-21T02:23:10.342Z,99874.38
2023-01-21T02:24:14.954Z,99872.69
2023-01-21T02:25:37.725Z,99872.84
2023-01-21T02:26:21.770Z,99872.00
2023-01-21T02:29:19.263Z,99866.75
2023-01-21T02:30:45.488Z,99867.63
2023-01-21T02:31:29.981Z,99878.06
2023-01-21T02:32:36.966Z,99868.59
2023-01-21T03:15:11.620Z,99864.34
2023-01-21T03:16:15.792Z,99861.78
2023-01-21T03:17:01.988Z,99872.06
2023-01-21T03:17:42.280Z,99866.03
2023-01-21T03:18:36.854Z,99873.69
2023-01-21T03:19:14.681Z,99879.81
2023-01-21T03:20:08.273Z,99867.91
2023-01-21T03:20:45.638Z,99873.75
2023-01-21T03:21:25.222Z,99868.47
2023-01-21T03:22:09.031Z,99871.88
2023-01-21T03:22:42.137Z,99872.84
2023-01-21T03:23:20.204Z,99872.00
2023-01-21T03:23:56.550Z,99878.78
2023-01-21T03:24:31.646Z,99874.50
2023-01-21T03:25:05.958Z,99877.00
2023-01-21T03:25:41.822Z,99879.59
2023-01-21T03:26:19.258Z,99878.69
2023-01-21T03:26:57.185Z,99876.91
2023-01-21T03:27:32.990Z,99885.53
2023-01-21T03:28:11.329Z,99879.44
2023-01-21T03:28:48.048Z,99878.59
2023-01-21T03:29:25.463Z,99887.13
2023-01-21T03:30:12.784Z,99876.84
2023-01-21T03:31:17.706Z,99886.19
2023-01-21T03:32:04.125Z,99882.78
2023-01-21T03:32:39.831Z,99883.63
2023-01-21T03:33:17.574Z,99885.34
2023-01-21T03:35:11.922Z,99891.09
2023-01-21T03:35:49.324Z,99886.06
2023-01-21T03:39:48.730Z,99899.63
2023-01-21T03:41:10.139Z,99904.69
2023-01-21T03:41:58.193Z,99909.03
2023-01-21T03:42:39.607Z,99912.47
2023-01-21T03:43:12.650Z,99914.06
2023-01-21T03:43:49.766Z,99906.34
2023-01-21T03:44:25.647Z,99914.06
2023-01-21T03:45:05.909Z,99908.88
2023-01-21T03:50:57.766Z,99921.59
2023-01-21T03:54:42.251Z,99919.84
2023-01-21T03:55:45.578Z,99914.75
2023-01-21T03:56:30.515Z,99920.69
2023-01-21T04:01:50.408Z,99937.00
2023-01-21T04:04:25.280Z,99930.91
2023-01-21T04:42:24.893Z,99978.69
2023-01-21T04:43:48.213Z,99968.59
2023-01-21T04:44:21.653Z,99968.53
2023-01-21T04:45:01.066Z,99971.00
2023-01-21T04:45:33.944Z,99966.94
2023-01-21T04:46:07.216Z,99970.38
2023-01-21T04:46:39.015Z,99972.94
2023-01-21T04:47:10.819Z,99966.91
2023-01-21T04:47:43.850Z,99966.91
2023-01-21T04:48:18.585Z,99975.41
2023-01-21T04:48:50.664Z,99966.84
2023-01-21T04:49:30.880Z,99973.72
2023-01-21T04:50:06.208Z,99968.59
2023-01-21T04:50:38.231Z,99968.53
2023-01-21T04:51:11.377Z,99967.75
2023-01-21T04:51:43.454Z,99970.38
2023-01-21T04:52:17.966Z,99963.44
2023-01-21T04:52:49.925Z,99967.84
2023-01-21T04:53:21.957Z,99961.88
2023-01-21T04:53:53.900Z,99974.72
2023-01-21T04:54:25.643Z,99971.25
2023-01-21T04:54:57.389Z,99973.94
2023-01-21T04:55:29.304Z,99975.66
2023-01-21T04:56:01.025Z,99972.09
2023-01-21T04:56:32.816Z,99967.84
2023-01-21T04:57:04.647Z,99973.88
2023-01-21T04:57:41.155Z,99977.28
2023-01-21T04:58:20.595Z,99974.91
2023-01-21T04:58:52.376Z,99976.44
2023-01-21T04:59:26.984Z,99973.94
2023-01-21T04:59:58.790Z,99972.28
2023-01-21T05:00:30.667Z,99970.63
2023-01-21T05:01:06.528Z,99972.38
2023-01-21T05:01:38.325Z,99971.53
2023-01-21T05:02:12.979Z,99976.63
2023-01-21T05:02:45.000Z,99978.38
2023-01-21T05:03:24.302Z,99980.00
2023-01-21T05:04:00.729Z,99980.00
2023-01-21T05:04:36.024Z,99977.38
2023-01-21T05:05:09.053Z,99984.34
2023-01-21T05:05:41.225Z,99983.50
2023-01-21T05:06:20.818Z,99983.56
2023-01-21T05:06:57.410Z,99984.47
2023-01-21T05:07:29.536Z,99976.81
2023-01-21T05:08:01.993Z,99982.81
2023-01-21T05:08:34.302Z,99978.56
2023-01-21T05:09:08.854Z,99983.66
2023-01-21T05:09:49.617Z,99973.59
2023-01-21T05:10:22.216Z,99977.84
2023-01-21T05:10:56.767Z,99980.44
2023-01-21T05:11:31.156Z,99983.66
2023-01-21T05:12:03.455Z,99973.50
2023-01-21T05:13:24.699Z,99986.41
2023-01-21T05:13:56.982Z,99985.38
2023-01-21T05:14:39.487Z,99976.84
2023-01-21T05:15:14.936Z,99978.66
2023-01-21T05:15:47.647Z,99984.53
2023-01-21T05:16:20.117Z,99983.59
2023-01-21T05:17:00.159Z,99981.88
2023-01-21T05:17:35.518Z,99985.28
2023-01-21T05:18:10.257Z,99978.50
2023-01-21T05:19:28.849Z,99976.84
2023-01-21T05:20:01.155Z,99981.31
2023-01-21T05:20:33.283Z,99993.97
2023-01-21T05:21:06.953Z,99989.84
2023-01-21T05:22:27.990Z,99993.13
2023-01-21T05:23:00.379Z,99986.44
2023-01-21T05:23:32.957Z,99990.69
2023-01-21T05:24:05.246Z,99989.88
2023-01-21T05:27:41.994Z,100000.16
2023-01-21T05:28:14.000Z,99995.78
2023-01-21T05:28:46.147Z,100002.69
2023-01-21T05:29:25.646Z,99998.41
2023-01-21T05:30:06.638Z,99992.56
2023-01-21T05:30:44.804Z,99997.47
2023-01-21T06:15:17.082Z,100033.28
2023-01-21T06:15:49.253Z,100038.44
2023-01-21T06:16:21.377Z,100046.16
2023-01-21T06:17:03.231Z,100047.81
2023-01-21T07:03:30.697Z,100085.41
2023-01-21T07:04:11.260Z,100083.69
2023-01-21T07:04:59.232Z,100078.56
2023-01-21T07:05:34.979Z,100083.69
2023-01-21T07:06:26.901Z,100083.69
2023-01-21T07:12:13.468Z,100092.06
2023-01-21T07:12:45.574Z,100097.25
2023-01-21T07:30:25.460Z,100153.28
2023-01-21T07:31:00.047Z,100148.13
2023-01-21T07:31:34.213Z,100146.41
2023-01-21T07:32:07.205Z,100152.44
2023-01-21T07:32:41.065Z,100155.91
2023-01-21T07:33:12.830Z,100160.16
2023-01-21T07:33:44.528Z,100146.41
2023-01-21T07:34:16.562Z,100152.44
2023-01-21T07:34:48.224Z,100152.44
2023-01-21T07:35:20.181Z,100160.16
2023-01-21T07:35:54.475Z,100152.44
2023-01-21T07:36:26.933Z,100152.38
2023-01-21T07:36:58.628Z,100157.53
2023-01-21T07:37:30.334Z,100159.25
2023-01-21T07:38:05.200Z,100156.69
2023-01-21T07:38:42.066Z,100163.56
2023-01-21T07:39:13.813Z,100160.09
2023-01-21T07:39:45.530Z,100160.19
2023-01-21T07:40:17.470Z,100155.91
2023-01-21T07:41:40.750Z,100165.34
2023-01-21T07:42:12.932Z,100160.25
2023-01-21T07:42:50.285Z,100161.09
2023-01-21T07:43:53.116Z,100159.31
2023-01-21T08:11:08.605Z,100180.88
2023-01-21T08:11:40.291Z,100180.78
2023-01-21T08:12:11.947Z,100185.88
2023-01-21T08:12:47.079Z,100183.16
2023-01-21T08:13:21.624Z,100186.56
2023-01-21T08:13:53.281Z,100188.38
2023-01-21T08:14:24.903Z,100185.00
2023-01-21T08:14:56.576Z,100184.97
2023-01-21T08:15:30.846Z,100185.00
2023-01-21T08:16:04.615Z,100180.72
2023-01-21T08:16:36.437Z,100182.38
2023-01-21T08:17:08.165Z,100188.31
2023-01-21T08:17:47.515Z,100185.69
2023-01-21T08:18:20.654Z,100190.88
2023-01-21T08:18:55.218Z,100185.75
2023-01-21T08:19:27.692Z,100180.63
2023-01-21T08:19:59.415Z,100183.97
2023-01-21T08:20:31.089Z,100182.22
2023-01-21T08:21:07.494Z,100185.66
2023-01-21T08:21:41.086Z,100183.06
2023-01-21T08:22:15.127Z,100188.16
2023-01-21T08:22:49.080Z,100187.19
2023-01-21T08:23:22.832Z,100178.66
2023-01-21T08:23:54.546Z,100178.81
2023-01-21T08:24:26.237Z,100179.56
2023-01-21T08:24:57.883Z,100183.03
2023-01-21T08:25:31.214Z,100185.53
2023-01-21T08:26:08.293Z,100180.47
2023-01-21T08:26:42.305Z,100183.03
2023-01-21T08:27:13.959Z,100181.22
2023-01-21T08:27:45.682Z,100172.66
2023-01-21T08:28:19.717Z,100179.44
2023-01-21T08:28:57.122Z,100180.47
2023-01-21T08:29:29.422Z,100183.78
2023-01-21T08:30:01.092Z,100178.66
2023-01-21T08:30:36.187Z,100182.19
2023-01-21T08:31:11.530Z,100181.34
2023-01-21T08:31:45.251Z,100184.00
2023-01-21T08:32:18.500Z,100189.09
2023-01-21T08:32:50.856Z,100185.69
2023-01-21T08:33:22.505Z,100190.00
2023-01-21T08:33:55.754Z,100191.69
2023-01-21T08:34:27.417Z,100191.53
2023-01-21T08:34:59.089Z,100183.03
2023-01-21T08:35:32.099Z,100194.13
2023-01-21T08:36:07.596Z,100192.38
2023-01-21T08:36:39.822Z,100196.81
2023-01-21T08:37:11.517Z,100201.00
2023-01-21T08:37:43.557Z,100197.56
2023-01-21T08:38:15.230Z,100199.31
2023-01-21T08:38:48.732Z,100200.09
2023-01-21T08:39:20.981Z,100205.25
2023-01-21T08:39:52.637Z,100205.34
2023-01-21T08:40:26.455Z,100202.72
2023-01-21T08:41:01.003Z,100200.22
2023-01-21T08:41:36.977Z,100207.09
2023-01-21T08:42:08.765Z,100201.00
2023-01-21T08:42:40.393Z,100201.78
2023-01-21T08:43:12.073Z,100200.84
2023-01-21T08:43:51.336Z,100208.63
2023-01-21T08:44:23.294Z,100203.38
2023-01-21T08:44:57.460Z,100203.38
2023-01-21T08:45:30.300Z,100208.63
2023-01-21T08:46:02.070Z,100208.63
2023-01-21T08:46:34.302Z,100205.19
2023-01-21T08:47:05.961Z,100203.47
2023-01-21T08:47:37.939Z,100206.84
2023-01-21T08:48:11.935Z,100206.84
2023-01-21T08:48:46.145Z,100212.13
2023-01-21T08:49:17.865Z,100205.25
2023-01-21T08:49:49.695Z,100201.00
2023-01-21T08:50:22.218Z,100212.03
2023-01-21T08:50:53.934Z,100206.00
2023-01-21T08:51:25.741Z,100212.00
2023-01-21T08:52:00.016Z,100209.50
2023-01-21T08:52:31.700Z,100207.78
2023-01-21T08:53:03.556Z,100206.00
2023-01-21T08:53:35.238Z,100206.84
2023-01-21T08:54:07.349Z,100212.00
2023-01-21T08:54:42.179Z,100217.00
2023-01-21T08:55:14.004Z,100213.63
2023-01-21T08:55:45.798Z,100217.91
2023-01-21T08:56:18.681Z,100213.63
2023-01-21T08:56:52.905Z,100209.25
2023-01-21T08:57:24.621Z,100216.06
2023-01-21T08:57:58.592Z,100216.13
2023-01-21T08:58:33.210Z,100212.75
2023-01-21T08:59:04.943Z,100211.06
2023-01-21T08:59:36.646Z,100212.78
2023-01-21T09:00:08.988Z,100211.09
2023-01-21T09:00:44.381Z,100217.94
2023-01-21T09:01:16.101Z,100214.53
2023-01-21T09:01:47.821Z,100211.06
2023-01-21T09:02:19.550Z,100217.84
2023-01-21T09:02:54.365Z,100216.06
2023-01-21T09:03:28.897Z,100219.47
2023-01-21T09:04:01.245Z,100214.31
2023-01-21T09:04:32.930Z,100210.88
2023-01-21T09:05:05.026Z,100220.28
2023-01-21T09:05:36.704Z,100219.44
2023-01-21T09:06:08.844Z,100211.72
2023-01-21T09:06:40.551Z,100218.50
2023-01-21T09:07:12.269Z,100215.88
2023-01-21T09:07:44.741Z,100217.66
2023-01-21T09:08:16.460Z,100218.47
2023-01-21T09:08:51.281Z,100218.56
2023-01-21T09:09:22.973Z,100222.81
2023-01-21T09:09:54.659Z,100221.06
2023-01-21T09:10:45.081Z,100216.78
2023-01-21T09:11:18.788Z,100221.00
2023-01-21T09:11:52.443Z,100218.47
2023-01-21T09:12:28.091Z,100221.00
2023-01-21T09:13:04.210Z,100226.97
2023-01-21T09:13:40.924Z,100221.78
2023-01-21T09:14:15.157Z,100225.16
2023-01-21T09:14:46.857Z,100214.88
2023-01-21T09:15:18.796Z,100225.13
2023-01-21T09:15:52.947Z,100223.38
2023-01-21T09:16:27.144Z,100218.28
2023-01-21T09:16:58.871Z,100220.00
2023-01-21T09:17:30.927Z,100219.16
2023-01-21T09:18:02.617Z,100215.72
2023-01-21T09:18:34.490Z,100217.41
2023-01-21T09:19:07.468Z,100218.19
2023-01-21T09:19:39.200Z,100221.56
2023-01-21T09:20:11.585Z,100217.34
2023-01-21T09:20:43.365Z,100217.28
2023-01-21T09:21:15.910Z,100217.25
2023-01-21T09:21:53.467Z,100213.88
2023-01-21T09:22:25.136Z,100216.44
2023-01-21T09:23:00.099Z,100217.25
2023-01-21T09:23:34.436Z,100216.44
2023-01-21T09:24:06.733Z,100218.94
2023-01-21T09:24:38.460Z,100218.88
2023-01-21T09:25:10.538Z,100218.03
2023-01-21T09:25:44.312Z,100216.31
2023-01-21T09:26:28.631Z,100213.75
2023-01-21T09:27:00.311Z,100219.69
2023-01-21T09:27:31.996Z,100213.91
2023-01-21T09:28:03.754Z,100212.19
2023-01-21T09:28:39.769Z,100216.41
2023-01-21T09:29:13.936Z,100217.41
2023-01-21T09:29:45.849Z,100222.53
2023-01-21T09:30:17.747Z,100221.63
2023-01-21T09:30:49.505Z,100218.09
2023-01-21T09:31:23.451Z,100223.25
2023-01-21T09:31:57.954Z,100218.13
2023-01-21T09:32:31.790Z,100219.97
2023-01-21T09:33:03.569Z,100221.66
2023-01-21T09:33:41.932Z,100217.44
2023-01-21T09:34:13.913Z,100216.59
2023-01-21T09:34:45.611Z,100226.09
2023-01-21T09:35:17.543Z,100220.00
2023-01-21T09:35:57.482Z,100219.97
2023-01-21T09:36:31.675Z,100215.66
2023-01-21T09:37:05.829Z,100216.41
2023-01-21T09:37:38.755Z,100219.81
2023-01-21T09:38:12.151Z,100218.09
2023-01-21T09:38:46.680Z,100219.03
2023-01-21T09:39:18.420Z,100215.59
2023-01-21T09:39:50.172Z,100214.81
2023-01-21T09:40:22.500Z,100216.50
2023-01-21T09:40:59.272Z,100219.88
2023-01-21T09:41:34.941Z,100226.69
2023-01-21T09:42:21.848Z,100225.06
2023-01-21T09:42:53.618Z,100225.00
2023-01-21T09:43:45.360Z,100221.59
2023-01-21T09:44:28.912Z,100219.97
2023-01-21T09:45:04.502Z,100223.38
2023-01-21T09:45:36.875Z,100224.22
2023-01-21T09:46:23.352Z,100222.53
2023-01-21T09:47:25.085Z,100218.19
2023-01-21T09:47:58.730Z,100220.81
2023-01-21T09:48:42.104Z,100217.34
2023-01-21T09:49:27.371Z,100216.50
2023-01-21T09:50:14.288Z,100214.63
2023-01-21T09:50:51.376Z,100210.31
2023-01-21T09:51:41.297Z,100214.53
2023-01-21T09:52:48.895Z,100205.88
2023-01-21T09:53:30.344Z,100209.25
2023-01-21T09:54:06.723Z,100212.63
2023-01-21T09:54:42.003Z,100215.16
2023-01-21T09:55:20.052Z,100212.50
2023-01-21T09:55:55.636Z,100212.56
2023-01-21T09:57:11.750Z,100214.38
2023-01-21T09:58:04.715Z,100210.09
2023-01-21T09:58:48.289Z,100213.56
2023-01-21T09:59:46.503Z,100211.69
2023-01-21T10:00:33.075Z,100217.56
2023-01-21T10:01:20.181Z,100214.09
2023-01-21T10:01:54.752Z,100219.41
2023-01-21T10:02:27.471Z,100221.88
2023-01-21T10:03:20.157Z,100222.75
2023-01-21T10:04:22.763Z,100224.41
2023-01-21T10:05:08.408Z,100227.25
2023-01-21T10:06:05.756Z,100224.88
2023-01-21T10:06:43.871Z,100221.56
2023-01-21T10:07:23.095Z,100230.91
2023-01-21T10:08:16.367Z,100225.09
2023-01-21T10:09:18.869Z,100220.81
2023-01-21T10:10:05.908Z,100220.75
2023-01-21T10:10:51.663Z,100229.22
2023-01-21T10:11:46.191Z,100229.13
2023-01-21T10:12:40.407Z,100223.00
2023-01-21T10:13:20.504Z,100223.66
2023-01-21T10:14:20.092Z,100217.75
2023-01-21T10:15:14.643Z,100220.19
2023-01-21T10:16:09.474Z,100221.84
2023-01-21T10:16:56.360Z,100220.94
2023-01-21T10:17:44.009Z,100217.47
2023-01-21T10:18:24.606Z,100218.22
2023-01-21T10:19:00.747Z,100217.47
2023-01-21T10:19:42.365Z,100226.09
2023-01-21T10:20:40.438Z,100221.69
2023-01-21T10:21:48.790Z,100218.19
2023-01-21T10:22:26.640Z,100226.91
2023-01-21T10:23:05.366Z,100220.94
2023-01-21T10:23:43.191Z,100221.84
2023-01-21T10:24:26.117Z,100220.03
2023-01-21T10:25:20.071Z,100224.41
2023-01-21T10:25:53.751Z,100222.63
2023-01-21T10:26:29.854Z,100223.66
2023-01-21T10:27:01.624Z,100229.75
2023-01-21T10:27:37.404Z,100222.81
2023-01-21T10:28:25.383Z,100227.88
2023-01-21T10:28:57.167Z,100224.34
2023-01-21T10:29:29.370Z,100222.69
2023-01-21T10:30:09.603Z,100232.06
2023-01-21T10:30:48.793Z,100228.63
2023-01-21T10:31:31.836Z,100222.53
2023-01-21T10:32:07.258Z,100222.47
2023-01-21T10:32:40.383Z,100229.25
2023-01-21T10:33:27.872Z,100230.34
2023-01-21T10:33:59.712Z,100236.41
2023-01-21T10:34:35.607Z,100232.13
2023-01-21T10:35:20.749Z,100234.69
2023-01-21T10:36:16.933Z,100231.09
2023-01-21T10:37:21.447Z,100231.94
2023-01-21T10:38:38.206Z,100238.97
2023-01-21T10:39:30.833Z,100237.22
2023-01-21T10:40:45.413Z,100231.34
2023-01-21T10:41:40.380Z,100230.41
2023-01-21T10:42:19.601Z,100227.56
2023-01-21T10:43:03.495Z,100227.56
2023-01-21T10:43:58.093Z,100234.31
2023-01-21T10:44:53.337Z,100230.94
2023-01-21T10:45:58.190Z,100230.91
2023-01-21T10:46:45.181Z,100241.94
2023-01-21T10:47:49.805Z,100236.84
2023-01-21T10:48:40.132Z,100239.56
2023-01-21T10:49:48.959Z,100235.16
2023-01-21T10:50:47.317Z,100241.34
2023-01-21T10:51:56.164Z,100238.81
2023-01-21T10:52:39.538Z,100233.72
2023-01-21T10:53:31.662Z,100237.44
2023-01-21T10:54:36.785Z,100233.78
2023-01-21T10:55:16.750Z,100234.66
2023-01-21T10:56:03.479Z,100240.66
2023-01-21T10:56:52.111Z,100235.75
2023-01-21T10:57:36.446Z,100234.97
2023-01-21T10:58:31.214Z,100236.66
2023-01-21T10:59:26.831Z,100231.38
2023-01-21T11:00:04.639Z,100228.94
2023-01-21T11:00:46.737Z,100228.75
2023-01-21T11:01:27.962Z,100228.72
2023-01-21T11:02:25.867Z,100233.91
2023-01-21T11:03:02.497Z,100231.19
2023-01-21T11:03:47.634Z,100227.63
2023-01-21T11:04:26.449Z,100223.25
2023-01-21T11:05:02.602Z,100222.44
2023-01-21T11:05:35.312Z,100223.31
2023-01-21T11:06:15.065Z,100224.03
2023-01-21T11:07:02.475Z,100222.47
2023-01-21T11:07:42.124Z,100229.41
2023-01-21T11:08:24.707Z,100224.09
2023-01-21T11:09:00.164Z,100218.97
2023-01-21T11:09:38.946Z,100218.97
2023-01-21T11:10:21.029Z,100219.81
2023-01-21T11:11:00.142Z,100218.88
2023-01-21T11:11:34.806Z,100218.03
2023-01-21T11:12:10.950Z,100212.88
2023-01-21T11:12:44.844Z,100224.03
2023-01-21T11:13:16.622Z,100228.38
2023-01-21T11:13:50.075Z,100227.59
2023-01-21T11:14:25.776Z,100225.78
2023-01-21T11:14:59.280Z,100220.88
2023-01-21T11:15:33.878Z,100226.88
2023-01-21T11:16:07.832Z,100226.72
2023-01-21T11:16:39.455Z,100225.06
2023-01-21T11:17:11.143Z,100219.00
2023-01-21T11:17:46.637Z,100224.94
2023-01-21T11:18:31.202Z,100230.94
2023-01-21T11:19:07.848Z,100229.09
2023-01-21T11:19:40.481Z,100224.81
2023-01-21T11:20:21.837Z,100224.81
2023-01-21T11:20:57.904Z,100223.97
2023-01-21T11:21:29.609Z,100225.69
2023-01-21T11:22:16.442Z,100229.03
2023-01-21T11:22:56.821Z,100217.13
2023-01-21T11:23:39.129Z,100222.25
2023-01-21T11:24:23.556Z,100222.25
2023-01-21T11:24:55.257Z,100226.50
2023-01-21T11:25:39.133Z,100220.50
2023-01-21T11:26:34.722Z,100220.44
2023-01-21T11:27:06.416Z,100219.66
2023-01-21T11:27:38.846Z,100219.72
2023-01-21T11:28:25.625Z,100219.56
2023-01-21T11:29:16.619Z,100224.50
2023-01-21T11:29:51.376Z,100221.09